Time;durP1;ratioP1;P1;durP2;ratioP2;P2;SDS_P1;SDS_P2;PMS_P1;PMS_P2;Temp;Humidity;BMP_temperature;BMP_pressure;BME280_temperature;BME280_humidity;BME280_pressure;Samples;Min_cycle;Max_cycle;Signal;HPM_P1;HPM_P2
2022/02/14 00:01:51;;;;;;;3.97;2.90;;;;;;;;;;4993957;28;20038;-36
2022/02/14 00:04:17;;;;;;;4.68;2.55;;;;;;;;;;4993957;28;20362;-35
2022/02/14 00:06:42;;;;;;;6.88;2.90;;;;;;;;;;4993949;28;20030;-36
2022/02/14 00:09:08;;;;;;;6.50;2.45;;;;;;;;;;4993782;28;20026;-36
2022/02/14 00:11:33;;;;;;;7.00;3.28;;;;;;;;;;4993913;28;20109;-35
2022/02/14 00:13:58;;;;;;;6.50;2.50;;;;;;;;;;4993868;28;20023;-36
2022/02/14 00:16:24;;;;;;;3.65;2.28;;;;;;;;;;4993595;28;20496;-36
2022/02/14 00:18:51;;;;;;;1.88;1.77;;;;;;;;;;4993385;28;20038;-35
2022/02/14 00:21:16;;;;;;;3.65;2.47;;;;;;;;;;4993716;28;20034;-36
2022/02/14 00:23:41;;;;;;;3.38;1.95;;;;;;;;;;4993356;28;20535;-36
2022/02/14 00:26:07;;;;;;;2.78;2.38;;;;;;;;;;4993747;28;20041;-35
2022/02/14 00:28:32;;;;;;;5.53;2.05;;;;;;;;;;4993609;28;20058;-35
2022/02/14 00:30:58;;;;;;;5.63;2.55;;;;;;;;;;4993350;28;20038;-35
2022/02/14 00:33:24;;;;;;;3.40;2.47;;;;;;;;;;4993322;28;20507;-36
2022/02/14 00:35:50;;;;;;;5.00;2.25;;;;;;;;;;4993339;28;20018;-35
2022/02/14 00:38:16;;;;;;;4.03;2.03;;;;;;;;;;4993101;28;20543;-36
2022/02/14 00:40:41;;;;;;;4.43;2.75;;;;;;;;;;4993094;28;20073;-36
2022/02/14 00:43:06;;;;;;;4.70;2.72;;;;;;;;;;4993028;28;20378;-36
2022/02/14 00:45:32;;;;;;;3.80;2.35;;;;;;;;;;4993614;28;20029;-36
2022/02/14 00:47:58;;;;;;;6.82;3.10;;;;;;;;;;4993174;28;20026;-35
2022/02/14 00:50:24;;;;;;;2.92;2.17;;;;;;;;;;4992982;28;20044;-35
2022/02/14 00:52:49;;;;;;;3.30;1.77;;;;;;;;;;4992807;28;20080;-35
2022/02/14 00:55:15;;;;;;;4.57;2.83;;;;;;;;;;4992877;28;20038;-36
2022/02/14 00:57:41;;;;;;;5.85;2.70;;;;;;;;;;4992898;28;20094;-36
2022/02/14 01:00:09;;;;;;;3.83;1.85;;;;;;;;;;4992840;28;20034;-36
2022/02/14 01:02:35;;;;;;;4.47;2.75;;;;;;;;;;4992957;28;20046;-36
2022/02/14 01:05:00;;;;;;;5.25;2.47;;;;;;;;;;4992864;28;20042;-36
2022/02/14 01:07:26;;;;;;;4.47;2.15;;;;;;;;;;4992606;28;20034;-35
2022/02/14 01:09:51;;;;;;;3.92;2.05;;;;;;;;;;4992532;28;20027;-35
2022/02/14 01:12:17;;;;;;;5.95;3.05;;;;;;;;;;4992595;28;20100;-35
2022/02/14 01:14:42;;;;;;;2.35;1.50;;;;;;;;;;4992709;28;20038;-35
2022/02/14 01:17:08;;;;;;;5.43;2.42;;;;;;;;;;4992545;28;20033;-36
2022/02/14 01:19:33;;;;;;;8.43;1.60;;;;;;;;;;4992298;28;20046;-36
2022/02/14 01:21:59;;;;;;;1.80;1.35;;;;;;;;;;4992359;28;20054;-35
2022/02/14 01:24:25;;;;;;;4.25;2.40;;;;;;;;;;4992718;28;20496;-35
2022/02/14 01:26:50;;;;;;;3.88;2.50;;;;;;;;;;4992189;28;20041;-35
2022/02/14 01:29:17;;;;;;;5.47;2.13;;;;;;;;;;4992617;28;20034;-36
2022/02/14 01:31:42;;;;;;;3.20;2.08;;;;;;;;;;4992200;28;20449;-36
2022/02/14 01:34:08;;;;;;;3.10;2.25;;;;;;;;;;4992443;28;20085;-36
2022/02/14 01:36:33;;;;;;;4.10;2.22;;;;;;;;;;4992529;28;20124;-35
2022/02/14 01:38:59;;;;;;;4.82;1.90;;;;;;;;;;4991999;28;20042;-35
2022/02/14 01:41:24;;;;;;;6.68;2.38;;;;;;;;;;4992325;28;20516;-36
2022/02/14 01:43:50;;;;;;;3.88;2.00;;;;;;;;;;4991805;28;20081;-36
2022/02/14 01:46:15;;;;;;;4.15;2.75;;;;;;;;;;4992347;28;20105;-35
2022/02/14 01:48:41;;;;;;;7.10;2.40;;;;;;;;;;4991937;28;20061;-35
2022/02/14 01:51:07;;;;;;;3.95;2.60;;;;;;;;;;4992081;28;20022;-36
2022/02/14 01:53:33;;;;;;;3.83;2.78;;;;;;;;;;4991996;28;20101;-35
2022/02/14 01:55:58;;;;;;;3.83;2.42;;;;;;;;;;4992016;28;20022;-36
2022/02/14 01:58:24;;;;;;;3.80;2.75;;;;;;;;;;4992187;28;20473;-35
2022/02/14 02:00:49;;;;;;;5.05;2.47;;;;;;;;;;4992334;28;20018;-36
2022/02/14 02:03:15;;;;;;;3.80;2.05;;;;;;;;;;4990773;28;20428;-36
2022/02/14 02:05:42;;;;;;;4.80;2.60;;;;;;;;;;4991756;28;20037;-35
2022/02/14 02:08:08;;;;;;;4.93;2.55;;;;;;;;;;4992144;28;20034;-35
2022/02/14 02:10:35;;;;;;;4.45;2.13;;;;;;;;;;4991844;28;20041;-35
2022/02/14 02:13:01;;;;;;;4.70;2.55;;;;;;;;;;4991999;28;20041;-36
2022/02/14 02:15:26;;;;;;;5.78;2.70;;;;;;;;;;4991814;28;20385;-35
2022/02/14 02:17:52;;;;;;;3.55;2.60;;;;;;;;;;4991847;28;20042;-36
2022/02/14 02:20:18;;;;;;;4.20;2.30;;;;;;;;;;4992132;28;20018;-36
2022/02/14 02:22:45;;;;;;;9.27;2.40;;;;;;;;;;4991519;28;20204;-36
2022/02/14 02:25:11;;;;;;;8.02;2.10;;;;;;;;;;4991816;28;20029;-35
2022/02/14 02:27:36;;;;;;;3.17;2.00;;;;;;;;;;4991765;28;20026;-35
2022/02/14 02:30:04;;;;;;;3.42;1.75;;;;;;;;;;4991537;28;20022;-36
2022/02/14 02:32:30;;;;;;;6.07;2.60;;;;;;;;;;4991917;28;20053;-36
2022/02/14 02:34:55;;;;;;;6.25;3.72;;;;;;;;;;4991495;28;20465;-36
2022/02/14 02:37:21;;;;;;;4.43;3.33;;;;;;;;;;4991543;28;20040;-36
2022/02/14 02:39:47;;;;;;;4.68;2.70;;;;;;;;;;4991662;28;20089;-35
2022/02/14 02:42:13;;;;;;;6.47;2.53;;;;;;;;;;4991494;28;20093;-35
2022/02/14 02:44:39;;;;;;;2.65;2.05;;;;;;;;;;4991463;28;20031;-35
2022/02/14 02:47:09;;;;;;;7.47;3.50;;;;;;;;;;4991608;28;20101;-35
2022/02/14 02:49:34;;;;;;;4.05;2.67;;;;;;;;;;4991580;28;20049;-35
2022/02/14 02:52:00;;;;;;;5.05;3.03;;;;;;;;;;4991621;28;20034;-35
2022/02/14 02:54:26;;;;;;;6.70;3.47;;;;;;;;;;4991750;28;20088;-35
2022/02/14 02:56:53;;;;;;;5.15;3.35;;;;;;;;;;4994889;28;20536;-35
2022/02/14 02:59:19;;;;;;;5.60;2.25;;;;;;;;;;4994944;28;20034;-35
2022/02/14 03:01:45;;;;;;;4.63;2.30;;;;;;;;;;4994913;28;20157;-36
2022/02/14 03:04:12;;;;;;;8.02;2.85;;;;;;;;;;4995294;28;20030;-36
2022/02/14 03:06:38;;;;;;;5.35;2.95;;;;;;;;;;4994859;28;20069;-35
2022/02/14 03:09:04;;;;;;;6.20;2.33;;;;;;;;;;4994801;28;20062;-36
2022/02/14 03:11:29;;;;;;;4.18;3.17;;;;;;;;;;4993537;28;20038;-35
2022/02/14 03:13:55;;;;;;;3.90;2.70;;;;;;;;;;4994624;28;20038;-35
2022/02/14 03:16:21;;;;;;;4.82;2.28;;;;;;;;;;4994822;28;20034;-35
2022/02/14 03:18:46;;;;;;;3.55;2.50;;;;;;;;;;4994618;28;20397;-35
2022/02/14 03:21:13;;;;;;;6.28;2.50;;;;;;;;;;4994556;28;20030;-35
2022/02/14 03:23:38;;;;;;;6.50;3.13;;;;;;;;;;4994443;28;20061;-35
2022/02/14 03:26:04;;;;;;;3.03;2.30;;;;;;;;;;4994422;28;20038;-35
2022/02/14 03:28:30;;;;;;;3.97;2.67;;;;;;;;;;4994762;28;20028;-35
2022/02/14 03:30:58;;;;;;;3.30;2.40;;;;;;;;;;4994334;28;20069;-35
2022/02/14 03:33:23;;;;;;;5.25;2.33;;;;;;;;;;4994979;28;20424;-35
2022/02/14 03:35:49;;;;;;;3.13;2.30;;;;;;;;;;4994636;28;20034;-35
2022/02/14 03:38:15;;;;;;;5.07;2.13;;;;;;;;;;4994569;28;20137;-35
2022/02/14 03:40:41;;;;;;;5.70;2.53;;;;;;;;;;4994192;28;20451;-35
2022/02/14 03:43:06;;;;;;;5.32;2.05;;;;;;;;;;4992997;28;20488;-35
2022/02/14 03:45:32;;;;;;;7.57;2.88;;;;;;;;;;4994194;28;20125;-35
2022/02/14 03:47:58;;;;;;;3.17;2.78;;;;;;;;;;4994096;28;20022;-35
2022/02/14 03:50:23;;;;;;;4.15;2.40;;;;;;;;;;4994087;28;20042;-35
2022/02/14 03:52:49;;;;;;;6.55;2.47;;;;;;;;;;4993981;28;20026;-36
2022/02/14 03:55:15;;;;;;;4.82;2.78;;;;;;;;;;4993989;28;20541;-35
2022/02/14 03:57:41;;;;;;;8.60;3.13;;;;;;;;;;4994232;28;20042;-35
2022/02/14 04:00:08;;;;;;;4.32;2.60;;;;;;;;;;4993978;28;20041;-35
2022/02/14 04:02:41;;;;;;;4.25;2.97;;;;;;;;;;4993807;28;20030;-35
2022/02/14 04:05:07;;;;;;;3.97;2.83;;;;;;;;;;4993877;28;20045;-36
2022/02/14 04:07:33;;;;;;;8.25;2.88;;;;;;;;;;4993659;28;20046;-35
2022/02/14 04:09:59;;;;;;;4.80;2.45;;;;;;;;;;4993926;28;20727;-35
2022/02/14 04:12:24;;;;;;;4.57;3.03;;;;;;;;;;4993692;28;20019;-35
2022/02/14 04:14:50;;;;;;;7.05;2.90;;;;;;;;;;4993848;28;20045;-36
2022/02/14 04:17:15;;;;;;;4.18;2.70;;;;;;;;;;4993931;28;20042;-35
2022/02/14 04:19:41;;;;;;;7.18;2.53;;;;;;;;;;4993701;28;20562;-36
2022/02/14 04:22:06;;;;;;;3.38;2.50;;;;;;;;;;4993306;28;20444;-36
2022/02/14 04:24:32;;;;;;;4.82;2.97;;;;;;;;;;4993468;28;20026;-35
2022/02/14 04:26:57;;;;;;;6.75;3.42;;;;;;;;;;4993631;28;20030;-35
2022/02/14 04:29:23;;;;;;;5.78;2.95;;;;;;;;;;4993443;28;20038;-35
2022/02/14 04:31:48;;;;;;;7.20;3.53;;;;;;;;;;4993418;28;20105;-36
2022/02/14 04:34:16;;;;;;;6.97;3.10;;;;;;;;;;4993590;28;20035;-36
2022/02/14 04:36:41;;;;;;;3.42;2.03;;;;;;;;;;4993325;28;20018;-36
2022/02/14 04:39:07;;;;;;;4.40;2.63;;;;;;;;;;4993207;28;20374;-35
2022/02/14 04:41:32;;;;;;;4.88;2.88;;;;;;;;;;4993387;28;20030;-35
2022/02/14 04:43:57;;;;;;;5.45;3.28;;;;;;;;;;4993086;28;20030;-35
2022/02/14 04:46:23;;;;;;;4.47;3.15;;;;;;;;;;4993274;28;20026;-35
2022/02/14 04:48:48;;;;;;;3.25;2.00;;;;;;;;;;4992946;28;20528;-35
2022/02/14 04:51:13;;;;;;;4.78;2.83;;;;;;;;;;4992940;28;20029;-36
2022/02/14 04:53:39;;;;;;;2.45;2.03;;;;;;;;;;4992897;28;20041;-35
2022/02/14 04:56:05;;;;;;;8.00;2.90;;;;;;;;;;4992865;28;20018;-35
2022/02/14 04:58:30;;;;;;;4.10;2.38;;;;;;;;;;4993066;28;20046;-35
2022/02/14 05:00:56;;;;;;;2.47;2.13;;;;;;;;;;4992663;28;20121;-35
2022/02/14 05:03:21;;;;;;;6.95;2.78;;;;;;;;;;4992835;28;20064;-36
2022/02/14 05:05:46;;;;;;;4.95;2.20;;;;;;;;;;4992535;28;20026;-36
2022/02/14 05:08:12;;;;;;;8.95;3.13;;;;;;;;;;4992678;28;20084;-35
2022/02/14 05:10:38;;;;;;;3.83;2.53;;;;;;;;;;4992573;28;20026;-36
2022/02/14 05:13:03;;;;;;;4.22;2.58;;;;;;;;;;4992418;28;20042;-36
2022/02/14 05:15:29;;;;;;;3.05;2.58;;;;;;;;;;4992830;28;20026;-36
2022/02/14 05:17:54;;;;;;;3.90;2.25;;;;;;;;;;4991634;28;20070;-36
2022/02/14 05:20:20;;;;;;;2.40;2.20;;;;;;;;;;4992487;28;20081;-36
2022/02/14 05:22:45;;;;;;;3.63;2.47;;;;;;;;;;4992313;28;20404;-35
2022/02/14 05:25:10;;;;;;;5.50;2.38;;;;;;;;;;4992513;28;20035;-36
2022/02/14 05:27:36;;;;;;;3.67;2.83;;;;;;;;;;4992639;28;20120;-35
2022/02/14 05:30:02;;;;;;;4.30;2.28;;;;;;;;;;4992527;28;20027;-35
2022/02/14 05:32:27;;;;;;;3.60;2.72;;;;;;;;;;4992313;28;20031;-36
2022/02/14 05:34:53;;;;;;;6.05;2.45;;;;;;;;;;4992056;28;20026;-35
2022/02/14 05:37:19;;;;;;;3.70;2.10;;;;;;;;;;4992520;28;20049;-36
2022/02/14 05:39:46;;;;;;;3.00;2.22;;;;;;;;;;4992190;28;20048;-35
2022/02/14 05:42:12;;;;;;;3.70;2.72;;;;;;;;;;4992142;28;20022;-36
2022/02/14 05:44:38;;;;;;;4.63;2.63;;;;;;;;;;4992133;28;20424;-35
2022/02/14 05:47:04;;;;;;;10.82;2.65;;;;;;;;;;4992358;28;20026;-36
2022/02/14 05:49:29;;;;;;;5.55;3.22;;;;;;;;;;4992031;28;20473;-35
2022/02/14 05:51:54;;;;;;;2.88;1.88;;;;;;;;;;4991952;28;20080;-35
2022/02/14 05:54:20;;;;;;;2.78;2.20;;;;;;;;;;4991990;28;20030;-35
2022/02/14 05:56:45;;;;;;;3.22;2.50;;;;;;;;;;4991912;28;20052;-36
2022/02/14 05:59:10;;;;;;;4.57;2.58;;;;;;;;;;4992217;28;20389;-35
2022/02/14 06:01:36;;;;;;;5.32;3.08;;;;;;;;;;4992172;28;20053;-36
2022/02/14 06:04:01;;;;;;;4.35;2.55;;;;;;;;;;4991849;28;20468;-35
2022/02/14 06:06:27;;;;;;;6.03;2.97;;;;;;;;;;4992175;28;20022;-35
2022/02/14 06:08:52;;;;;;;6.68;3.20;;;;;;;;;;4990533;28;20121;-35
2022/02/14 06:11:18;;;;;;;3.95;1.83;;;;;;;;;;4991805;28;20034;-35
2022/02/14 06:13:43;;;;;;;6.25;2.60;;;;;;;;;;4991714;28;20085;-37
2022/02/14 06:16:08;;;;;;;4.47;2.72;;;;;;;;;;4992149;28;20144;-35
2022/02/14 06:18:34;;;;;;;5.30;2.45;;;;;;;;;;4991913;28;20493;-35
2022/02/14 06:20:59;;;;;;;2.35;1.73;;;;;;;;;;4991607;28;20038;-35
2022/02/14 06:23:27;;;;;;;2.53;2.33;;;;;;;;;;4991613;28;20054;-35
2022/02/14 06:25:52;;;;;;;6.22;2.53;;;;;;;;;;4991827;28;20038;-35
2022/02/14 06:28:18;;;;;;;3.60;1.85;;;;;;;;;;4992014;28;20511;-35
2022/02/14 06:30:46;;;;;;;3.75;2.05;;;;;;;;;;4995150;28;20038;-35
2022/02/14 06:33:12;;;;;;;3.78;2.25;;;;;;;;;;4995454;28;20027;-35
2022/02/14 06:35:38;;;;;;;5.55;2.75;;;;;;;;;;4995865;28;20125;-35
2022/02/14 06:38:03;;;;;;;4.90;2.75;;;;;;;;;;4995642;28;20101;-35
2022/02/14 06:40:29;;;;;;;4.85;2.95;;;;;;;;;;4995627;28;20041;-35
2022/02/14 06:42:55;;;;;;;3.92;2.45;;;;;;;;;;4995623;28;20015;-35
2022/02/14 06:45:20;;;;;;;3.67;2.42;;;;;;;;;;4995560;28;20503;-35
2022/02/14 06:47:47;;;;;;;3.67;2.45;;;;;;;;;;5010245;28;20026;-35
2022/02/14 06:50:13;;;;;;;3.45;2.90;;;;;;;;;;4995305;28;20073;-35
2022/02/14 06:52:39;;;;;;;5.35;2.80;;;;;;;;;;4995194;28;20034;-34
2022/02/14 06:55:08;;;;;;;5.97;2.80;;;;;;;;;;4995046;28;20384;-35
2022/02/14 06:57:33;;;;;;;10.30;3.38;;;;;;;;;;4994972;28;20495;-35
2022/02/14 06:59:59;;;;;;;5.47;2.97;;;;;;;;;;4995276;28;20034;-35
2022/02/14 07:02:24;;;;;;;6.38;3.22;;;;;;;;;;4995248;28;20465;-35
2022/02/14 07:04:50;;;;;;;3.88;2.80;;;;;;;;;;4994890;28;20037;-35
2022/02/14 07:07:19;;;;;;;5.32;2.53;;;;;;;;;;4994772;28;20026;-35
2022/02/14 07:09:48;;;;;;;5.57;3.08;;;;;;;;;;4995003;28;20121;-35
2022/02/14 07:12:13;;;;;;;5.65;3.38;;;;;;;;;;4995121;28;20376;-35
2022/02/14 07:14:40;;;;;;;8.95;4.53;;;;;;;;;;4994671;28;20568;-35
2022/02/14 07:17:05;;;;;;;8.57;4.68;;;;;;;;;;4994729;28;20065;-35
2022/02/14 07:19:31;;;;;;;20.65;8.40;;;;;;;;;;4995015;28;20077;-35
2022/02/14 07:21:56;;;;;;;11.88;5.75;;;;;;;;;;4994274;28;20440;-35
2022/02/14 07:24:22;;;;;;;9.13;4.65;;;;;;;;;;4994985;28;20034;-35
2022/02/14 07:26:48;;;;;;;5.75;3.67;;;;;;;;;;5009472;28;20042;-35
2022/02/14 07:29:14;;;;;;;3.88;2.53;;;;;;;;;;4994461;28;20416;-35
2022/02/14 07:31:41;;;;;;;6.10;2.85;;;;;;;;;;4994539;28;20491;-35
2022/02/14 07:34:07;;;;;;;9.82;4.03;;;;;;;;;;4994706;28;20026;-35
2022/02/14 07:36:33;;;;;;;7.70;3.20;;;;;;;;;;4994624;28;20022;-35
2022/02/14 07:38:58;;;;;;;8.57;3.08;;;;;;;;;;4994222;28;20046;-35
2022/02/14 07:41:24;;;;;;;6.70;2.80;;;;;;;;;;4993712;28;20026;-35
2022/02/14 07:43:49;;;;;;;5.60;3.17;;;;;;;;;;4994329;28;20471;-36
2022/02/14 07:46:15;;;;;;;15.25;3.60;;;;;;;;;;4994237;28;20354;-35
2022/02/14 07:48:46;;;;;;;4.25;2.78;;;;;;;;;;4994200;28;20089;-35
2022/02/14 07:51:14;;;;;;;5.25;3.10;;;;;;;;;;4994049;28;20388;-35
2022/02/14 07:53:39;;;;;;;4.00;3.05;;;;;;;;;;4994154;28;20038;-35
2022/02/14 07:56:06;;;;;;;3.05;2.40;;;;;;;;;;4994026;28;20038;-35
2022/02/14 07:58:32;;;;;;;3.42;2.22;;;;;;;;;;4993989;28;20053;-35
2022/02/14 08:00:58;;;;;;;6.82;2.95;;;;;;;;;;4994165;28;20034;-35
2022/02/14 08:03:23;;;;;;;5.28;2.85;;;;;;;;;;4993930;28;20077;-35
2022/02/14 08:05:49;;;;;;;7.82;3.30;;;;;;;;;;4994082;28;20038;-35
2022/02/14 08:08:15;;;;;;;6.72;2.90;;;;;;;;;;4993858;28;20030;-35
2022/02/14 08:10:40;;;;;;;6.45;4.03;;;;;;;;;;4993757;28;20053;-35
2022/02/14 08:13:06;;;;;;;8.23;3.40;;;;;;;;;;4993601;28;20430;-35
2022/02/14 08:15:31;;;;;;;4.07;2.60;;;;;;;;;;4994040;28;20284;-35
2022/02/14 08:18:02;;;;;;;5.22;3.38;;;;;;;;;;4993724;28;20030;-35
2022/02/14 08:20:28;;;;;;;4.22;3.13;;;;;;;;;;4993911;28;20022;-35
2022/02/14 08:22:54;;;;;;;6.60;4.35;;;;;;;;;;4993444;28;20046;-35
2022/02/14 08:25:19;;;;;;;5.00;3.25;;;;;;;;;;4993776;28;20027;-35
2022/02/14 08:27:45;;;;;;;6.82;3.80;;;;;;;;;;4993491;28;20491;-35
2022/02/14 08:30:11;;;;;;;8.18;3.30;;;;;;;;;;4993295;28;20033;-35
2022/02/14 08:32:36;;;;;;;5.82;3.58;;;;;;;;;;4993324;28;20021;-35
2022/02/14 08:35:02;;;;;;;7.25;3.97;;;;;;;;;;4993203;28;20105;-35
2022/02/14 08:37:27;;;;;;;4.30;2.55;;;;;;;;;;4993221;28;20014;-35
2022/02/14 08:39:53;;;;;;;7.07;3.10;;;;;;;;;;4993101;28;20078;-35
2022/02/14 08:42:19;;;;;;;7.80;4.60;;;;;;;;;;4991855;28;20027;-35
2022/02/14 08:44:44;;;;;;;7.93;3.72;;;;;;;;;;4993421;28;20041;-35
2022/02/14 08:47:10;;;;;;;8.73;3.85;;;;;;;;;;4991775;28;20228;-36
2022/02/14 08:49:37;;;;;;;3.55;3.10;;;;;;;;;;4993117;28;20030;-35
2022/02/14 08:52:03;;;;;;;4.18;3.80;;;;;;;;;;4992941;28;20483;-36
2022/02/14 08:54:28;;;;;;;5.03;3.25;;;;;;;;;;4992959;28;20026;-35
2022/02/14 08:56:56;;;;;;;5.82;3.25;;;;;;;;;;4992833;28;20100;-35
2022/02/14 08:59:21;;;;;;;6.63;3.40;;;;;;;;;;4993057;28;20070;-35
2022/02/14 09:01:47;;;;;;;6.20;3.70;;;;;;;;;;4992732;28;20057;-35
2022/02/14 09:04:13;;;;;;;4.28;3.13;;;;;;;;;;4992814;28;20580;-36
2022/02/14 09:06:39;;;;;;;6.22;3.38;;;;;;;;;;4992741;28;20101;-36
2022/02/14 09:09:04;;;;;;;6.70;3.70;;;;;;;;;;4992867;28;20026;-36
2022/02/14 09:11:30;;;;;;;7.82;3.28;;;;;;;;;;4992592;28;20484;-35
2022/02/14 09:13:55;;;;;;;5.07;3.05;;;;;;;;;;4992878;28;20038;-35
2022/02/14 09:16:21;;;;;;;8.38;4.13;;;;;;;;;;4992821;28;20022;-36
2022/02/14 09:18:47;;;;;;;7.90;3.50;;;;;;;;;;4992386;28;20514;-35
2022/02/14 09:21:13;;;;;;;4.70;2.90;;;;;;;;;;4993079;28;20029;-35
2022/02/14 09:23:39;;;;;;;8.90;4.90;;;;;;;;;;4992352;28;20050;-35
2022/02/14 09:26:04;;;;;;;6.40;4.22;;;;;;;;;;4992336;28;20383;-35
2022/02/14 09:28:30;;;;;;;6.65;3.47;;;;;;;;;;4992733;28;20034;-35
2022/02/14 09:30:56;;;;;;;8.68;4.18;;;;;;;;;;4992416;28;20109;-35
2022/02/14 09:33:22;;;;;;;8.98;4.07;;;;;;;;;;4992577;28;20035;-36
2022/02/14 09:35:47;;;;;;;7.60;4.75;;;;;;;;;;4992275;28;20484;-35
2022/02/14 09:38:13;;;;;;;13.52;4.75;;;;;;;;;;4992367;28;20042;-35
2022/02/14 09:40:39;;;;;;;6.53;4.07;;;;;;;;;;4992480;28;20346;-36
2022/02/14 09:43:04;;;;;;;8.45;4.07;;;;;;;;;;4992291;28;20046;-35
2022/02/14 09:45:31;;;;;;;8.77;4.03;;;;;;;;;;4992132;28;20354;-35
2022/02/14 09:47:58;;;;;;;6.07;3.53;;;;;;;;;;4992041;28;20121;-36
2022/02/14 09:50:24;;;;;;;8.68;4.50;;;;;;;;;;4992034;28;20026;-35
2022/02/14 09:52:50;;;;;;;6.68;3.47;;;;;;;;;;4992212;28;20397;-36
2022/02/14 09:55:15;;;;;;;7.35;3.65;;;;;;;;;;4992279;28;20026;-35
2022/02/14 09:57:41;;;;;;;4.63;3.05;;;;;;;;;;4991975;28;20479;-35
2022/02/14 10:00:08;;;;;;;10.70;4.30;;;;;;;;;;4992154;28;20482;-35
2022/02/14 10:02:35;;;;;;;9.48;4.57;;;;;;;;;;4991976;28;20030;-35
2022/02/14 10:05:05;;;;;;;7.82;3.33;;;;;;;;;;4996906;28;20112;-35
2022/02/14 10:07:41;;;;;;;5.55;3.70;;;;;;;;;;4998644;28;20030;-35
2022/02/14 10:10:11;;;;;;;10.10;4.05;;;;;;;;;;4998558;28;20038;-36
2022/02/14 10:12:41;;;;;;;4.78;3.22;;;;;;;;;;4998369;28;20473;-36
2022/02/14 10:15:07;;;;;;;8.13;4.13;;;;;;;;;;4998289;28;20119;-36
2022/02/14 10:17:43;;;;;;;7.30;4.00;;;;;;;;;;4998389;28;20045;-35
2022/02/14 10:20:09;;;;;;;6.10;4.18;;;;;;;;;;4998101;28;20042;-36
2022/02/14 10:22:55;;;;;;;7.55;4.20;;;;;;;;;;4998173;28;20057;-36
2022/02/14 10:25:28;;;;;;;7.50;3.17;;;;;;;;;;4998272;28;20030;-35
2022/02/14 10:27:53;;;;;;;6.32;3.72;;;;;;;;;;4998125;28;20026;-36
2022/02/14 10:30:19;;;;;;;10.43;4.53;;;;;;;;;;4998168;28;20037;-35
2022/02/14 10:32:51;;;;;;;7.22;4.25;;;;;;;;;;4998225;28;20030;-35
2022/02/14 10:35:18;;;;;;;6.72;3.40;;;;;;;;;;4998247;28;20552;-35
2022/02/14 10:37:44;;;;;;;8.02;5.18;;;;;;;;;;4998646;28;20166;-35
2022/02/14 10:40:24;;;;;;;9.02;3.85;;;;;;;;;;4998009;28;20034;-35
2022/02/14 10:42:50;;;;;;;13.07;3.90;;;;;;;;;;4997993;28;20038;-35
2022/02/14 10:45:16;;;;;;;8.10;4.18;;;;;;;;;;4998706;28;20018;-35
2022/02/14 10:47:42;;;;;;;6.15;3.92;;;;;;;;;;4998345;28;20026;-35
2022/02/14 10:50:09;;;;;;;6.78;3.75;;;;;;;;;;4997885;28;20376;-35
2022/02/14 10:52:35;;;;;;;12.05;4.50;;;;;;;;;;4998142;28;20360;-35
2022/02/14 10:55:05;;;;;;;8.23;4.75;;;;;;;;;;4997884;28;20065;-35
2022/02/14 10:57:32;;;;;;;9.18;4.43;;;;;;;;;;4998278;28;20424;-35
2022/02/14 10:59:59;;;;;;;8.00;4.00;;;;;;;;;;4998162;28;20424;-36
2022/02/14 11:02:25;;;;;;;7.22;3.72;;;;;;;;;;4998161;28;20034;-36
2022/02/14 11:04:50;;;;;;;10.07;4.20;;;;;;;;;;4996578;28;20033;-35
2022/02/14 11:07:18;;;;;;;10.30;4.35;;;;;;;;;;4998243;28;20031;-35
2022/02/14 11:09:46;;;;;;;7.85;4.38;;;;;;;;;;4997824;28;20358;-35
2022/02/14 11:12:12;;;;;;;7.88;4.28;;;;;;;;;;4997821;28;20130;-35
2022/02/14 11:14:40;;;;;;;9.32;4.57;;;;;;;;;;4998149;28;20498;-36
2022/02/14 11:17:07;;;;;;;12.55;4.78;;;;;;;;;;4993579;28;20117;-35
2022/02/14 11:19:34;;;;;;;8.18;5.15;;;;;;;;;;4993496;28;20034;-36
2022/02/14 11:22:03;;;;;;;6.95;4.68;;;;;;;;;;4994267;28;20141;-35
2022/02/14 11:24:30;;;;;;;7.50;4.95;;;;;;;;;;4995229;28;20038;-35
2022/02/14 11:27:00;;;;;;;7.75;4.70;;;;;;;;;;4994474;28;20027;-35
2022/02/14 11:29:47;;;;;;;8.63;5.10;;;;;;;;;;4993289;28;20420;-35
2022/02/14 11:32:26;;;;;;;9.75;4.57;;;;;;;;;;4994322;28;20022;-36
2022/02/14 11:34:53;;;;;;;10.80;3.88;;;;;;;;;;4994403;28;20030;-36
2022/02/14 11:37:18;;;;;;;9.52;4.90;;;;;;;;;;4994248;28;20022;-36
2022/02/14 11:39:44;;;;;;;9.85;4.60;;;;;;;;;;4994226;28;20551;-36
2022/02/14 11:42:11;;;;;;;7.07;4.30;;;;;;;;;;4994230;28;20497;-36
2022/02/14 11:44:36;;;;;;;12.35;4.57;;;;;;;;;;4994497;28;20400;-36
2022/02/14 11:47:03;;;;;;;8.43;5.22;;;;;;;;;;4994464;28;20027;-36
2022/02/14 11:49:36;;;;;;;7.75;3.88;;;;;;;;;;4994544;28;20027;-36
2022/02/14 11:52:04;;;;;;;5.53;4.07;;;;;;;;;;4994041;28;20030;-36
2022/02/14 11:54:37;;;;;;;7.95;4.43;;;;;;;;;;4994299;28;20034;-35
2022/02/14 11:57:08;;;;;;;7.93;4.40;;;;;;;;;;4993942;28;20481;-36
2022/02/14 11:59:34;;;;;;;8.02;4.25;;;;;;;;;;4993798;28;20037;-36
2022/02/14 12:02:02;;;;;;;10.65;5.10;;;;;;;;;;4993855;28;20026;-36
2022/02/14 12:04:49;;;;;;;10.57;3.92;;;;;;;;;;4994250;28;20037;-36
2022/02/14 12:07:19;;;;;;;10.20;4.88;;;;;;;;;;4994182;28;20417;-35
2022/02/14 12:09:57;;;;;;;8.70;5.00;;;;;;;;;;4993830;28;20540;-35
2022/02/14 12:12:41;;;;;;;8.95;4.68;;;;;;;;;;4993862;28;20062;-36
2022/02/14 12:20:36;;;;;;;5.93;4.10;;;;;;;;;;4993576;28;20090;-35
2022/02/14 12:23:02;;;;;;;7.93;5.10;;;;;;;;;;4993568;28;20038;-36
2022/02/14 12:25:28;;;;;;;8.38;4.35;;;;;;;;;;4993876;28;20078;-35
2022/02/14 12:27:57;;;;;;;6.65;4.22;;;;;;;;;;4992026;28;20464;-35
2022/02/14 12:30:23;;;;;;;7.43;4.43;;;;;;;;;;4993429;28;20065;-36
2022/02/14 12:33:00;;;;;;;8.68;4.95;;;;;;;;;;4993427;28;20062;-36
2022/02/14 12:35:29;;;;;;;10.65;4.68;;;;;;;;;;4993601;28;20454;-35
2022/02/14 12:37:58;;;;;;;6.85;4.80;;;;;;;;;;4993417;28;20029;-36
2022/02/14 12:40:24;;;;;;;9.60;4.68;;;;;;;;;;4993492;28;20026;-36
2022/02/14 12:42:58;;;;;;;12.57;5.90;;;;;;;;;;4993283;28;20030;-37
2022/02/14 12:45:23;;;;;;;10.38;4.78;;;;;;;;;;4993375;28;20030;-36
2022/02/14 12:47:49;;;;;;;8.38;4.80;;;;;;;;;;4993347;28;20046;-36
2022/02/14 12:50:17;;;;;;;10.00;5.35;;;;;;;;;;4992871;28;20034;-36
2022/02/14 12:52:45;;;;;;;8.13;4.75;;;;;;;;;;4991849;28;20059;-35
2022/02/14 12:55:12;;;;;;;8.45;4.93;;;;;;;;;;4992924;28;20088;-36
2022/02/14 12:57:39;;;;;;;10.00;5.07;;;;;;;;;;4993070;28;20391;-36
2022/02/14 13:00:17;;;;;;;7.70;4.18;;;;;;;;;;4992762;28;20031;-36
2022/02/14 13:02:48;;;;;;;8.77;5.03;;;;;;;;;;4992857;28;20034;-35
2022/02/14 13:05:13;;;;;;;8.63;5.38;;;;;;;;;;4992672;28;20041;-36
2022/02/14 13:07:39;;;;;;;10.43;5.38;;;;;;;;;;4992819;28;20034;-36
2022/02/14 13:10:04;;;;;;;10.57;5.15;;;;;;;;;;4991253;28;20041;-35
2022/02/14 13:12:30;;;;;;;13.30;5.50;;;;;;;;;;4992618;28;20042;-36
2022/02/14 13:15:02;;;;;;;9.82;4.50;;;;;;;;;;4992479;28;20042;-35
2022/02/14 13:17:28;;;;;;;6.45;3.47;;;;;;;;;;4992654;28;20041;-36
2022/02/14 13:19:58;;;;;;;6.50;4.57;;;;;;;;;;4992304;28;20038;-36
2022/02/14 13:22:24;;;;;;;7.20;3.85;;;;;;;;;;4992339;28;20547;-36
2022/02/14 13:24:55;;;;;;;9.98;4.72;;;;;;;;;;4992387;28;20042;-36
2022/02/14 13:27:24;;;;;;;13.18;4.93;;;;;;;;;;4992748;28;20042;-36
2022/02/14 13:29:51;;;;;;;13.45;5.57;;;;;;;;;;4992569;28;20348;-36
2022/02/14 13:32:18;;;;;;;7.35;4.43;;;;;;;;;;4992306;28;20164;-36
2022/02/14 13:34:51;;;;;;;9.25;5.28;;;;;;;;;;4992348;28;20102;-35
2022/02/14 13:37:17;;;;;;;9.50;4.53;;;;;;;;;;4992574;28;20046;-36
2022/02/14 13:39:44;;;;;;;9.23;4.80;;;;;;;;;;4991348;28;20472;-36
2022/02/14 13:42:20;;;;;;;13.70;4.45;;;;;;;;;;4992412;28;20209;-36
2022/02/14 13:44:59;;;;;;;7.28;4.03;;;;;;;;;;4992164;28;20026;-35
2022/02/14 13:47:25;;;;;;;9.43;4.55;;;;;;;;;;4992291;28;20037;-35
2022/02/14 13:49:52;;;;;;;7.88;4.47;;;;;;;;;;4992235;28;20034;-35
2022/02/14 13:52:26;;;;;;;9.25;5.38;;;;;;;;;;4992334;28;20057;-35
2022/02/14 13:54:59;;;;;;;10.52;5.40;;;;;;;;;;4992284;28;20030;-36
2022/02/14 13:57:25;;;;;;;11.13;4.88;;;;;;;;;;4992001;28;20117;-35
2022/02/14 13:59:51;;;;;;;7.50;4.80;;;;;;;;;;4992141;28;20493;-35
2022/02/14 14:02:17;;;;;;;9.45;5.75;;;;;;;;;;4991945;28;20519;-36
2022/02/14 14:04:43;;;;;;;9.15;4.50;;;;;;;;;;4991918;28;20108;-35
2022/02/14 14:07:10;;;;;;;9.93;5.68;;;;;;;;;;4991807;28;20062;-36
2022/02/14 14:09:40;;;;;;;11.95;6.13;;;;;;;;;;4991879;28;20026;-35
2022/02/14 14:12:20;;;;;;;9.43;4.88;;;;;;;;;;4992045;28;20141;-35
2022/02/14 14:14:55;;;;;;;18.00;5.35;;;;;;;;;;4991842;28;20031;-35
2022/02/14 14:17:21;;;;;;;7.22;4.10;;;;;;;;;;4991920;28;20065;-36
2022/02/14 14:19:51;;;;;;;7.45;4.70;;;;;;;;;;4991659;28;20327;-35
2022/02/14 14:22:18;;;;;;;11.40;5.38;;;;;;;;;;4991613;28;20049;-36
2022/02/14 14:24:48;;;;;;;9.60;5.32;;;;;;;;;;4992066;28;20421;-36
2022/02/14 14:27:17;;;;;;;10.55;5.75;;;;;;;;;;4991673;28;20088;-35
2022/02/14 14:29:43;;;;;;;12.20;6.35;;;;;;;;;;4991697;28;20027;-36
2022/02/14 14:32:09;;;;;;;11.10;5.47;;;;;;;;;;4991600;28;20034;-35
2022/02/14 14:34:36;;;;;;;8.10;5.13;;;;;;;;;;4991846;28;20457;-36
2022/02/14 14:37:02;;;;;;;7.70;5.13;;;;;;;;;;4991438;28;20448;-36
2022/02/14 14:39:28;;;;;;;8.70;5.25;;;;;;;;;;4991590;28;20038;-35
2022/02/14 14:41:53;;;;;;;11.75;4.97;;;;;;;;;;4991890;28;20499;-35
2022/02/14 14:44:26;;;;;;;8.85;5.05;;;;;;;;;;4991864;28;20023;-35